createdAt,value
2017-07-08T00:00:06.285Z,1010.32
2017-07-08T00:00:16.612Z,1010.27
2017-07-08T00:00:26.281Z,1010.3
2017-07-08T00:00:36.603Z,1010.29
2017-07-08T00:00:46.598Z,1010.28
2017-07-08T00:00:56.256Z,1010.31
2017-07-08T00:01:06.587Z,1010.29
2017-07-08T00:01:16.589Z,1010.28
2017-07-08T00:01:26.579Z,1010.27
2017-07-08T00:01:36.242Z,1010.24
2017-07-08T00:01:46.567Z,1010.28
2017-07-08T00:01:56.566Z,1010.26
2017-07-08T00:02:06.562Z,1010.25
2017-07-08T00:02:16.893Z,1010.24
2017-07-08T00:02:26.553Z,1010.19
2017-07-08T00:02:36.881Z,1010.23
2017-07-08T00:02:46.874Z,1010.22
2017-07-08T00:02:56.539Z,1010.21
2017-07-08T00:03:06.536Z,1010.24
2017-07-08T00:03:16.198Z,1010.22
2017-07-08T00:03:26.525Z,1010.21
2017-07-08T00:03:36.178Z,1010.22
2017-07-08T00:03:46.847Z,1010.21
2017-07-08T00:03:56.511Z,1010.16
2017-07-08T00:04:06.506Z,1010.22
2017-07-08T00:04:16.163Z,1010.22
2017-07-08T00:04:26.505Z,1010.15
2017-07-08T00:04:36.493Z,1010.18
2017-07-08T00:04:46.154Z,1010.18
2017-07-08T00:04:56.145Z,1010.19
2017-07-08T00:05:06.479Z,1010.18
2017-07-08T00:05:16.139Z,1010.18
2017-07-08T00:05:26.801Z,1010.17
2017-07-08T00:05:36.123Z,1010.2
2017-07-08T00:05:46.456Z,1010.17
2017-07-08T00:05:56.451Z,1010.16
2017-07-08T00:06:06.446Z,1010.19
2017-07-08T00:06:16.441Z,1010.18
2017-07-08T00:06:26.439Z,1010.18
2017-07-08T00:06:36.104Z,1010.16
2017-07-08T00:06:46.093Z,1010.19
2017-07-08T00:06:56.424Z,1010.13
2017-07-08T00:07:06.418Z,1010.19
2017-07-08T00:07:16.416Z,1010.14
2017-07-08T00:07:26.747Z,1010.18
2017-07-08T00:07:36.740Z,1010.21
2017-07-08T00:07:46.069Z,1010.2
2017-07-08T00:07:56.727Z,1010.25
2017-07-08T00:08:06.728Z,1010.16
2017-07-08T00:08:16.385Z,1010.17
2017-07-08T00:08:26.047Z,1010.22
2017-07-08T00:08:36.041Z,1010.21
2017-07-08T00:08:46.041Z,1010.18
2017-07-08T00:08:56.367Z,1010.22
2017-07-08T00:09:06.362Z,1010.25
2017-07-08T00:09:16.694Z,1010.24
2017-07-08T00:09:26.021Z,1010.23
2017-07-08T00:09:36.684Z,1010.24
2017-07-08T00:09:46.347Z,1010.2
2017-07-08T00:09:56.343Z,1010.24
2017-07-08T00:10:06.338Z,1010.26
2017-07-08T00:10:16.334Z,1010.29
2017-07-08T00:10:25.994Z,1010.24
2017-07-08T00:10:35.990Z,1010.22
2017-07-08T00:10:45.985Z,1010.24
2017-07-08T00:10:56.650Z,1010.2
2017-07-08T00:11:06.638Z,1010.26
2017-07-08T00:11:16.299Z,1010.26
2017-07-08T00:11:26.295Z,1010.29
2017-07-08T00:11:36.625Z,1010.27
2017-07-08T00:11:46.288Z,1010.29
2017-07-08T00:11:56.286Z,1010.27
2017-07-08T00:12:06.277Z,1010.3
2017-07-08T00:12:16.606Z,1010.26
2017-07-08T00:12:26.270Z,1010.3
2017-07-08T00:12:35.930Z,1010.27
2017-07-08T00:12:46.321Z,1010.3
2017-07-08T00:12:56.253Z,1010.3
2017-07-08T00:13:06.250Z,1010.28
2017-07-08T00:13:16.245Z,1010.27
2017-07-08T00:13:26.242Z,1010.31
2017-07-08T00:13:36.236Z,1010.25
2017-07-08T00:13:46.234Z,1010.27
2017-07-08T00:13:56.228Z,1010.29
2017-07-08T00:14:05.940Z,1010.3
2017-07-08T00:14:16.216Z,1010.31
2017-07-08T00:14:26.208Z,1010.3
2017-07-08T00:14:36.210Z,1010.34
2017-07-08T00:14:45.869Z,1010.31
2017-07-08T00:14:56.529Z,1010.3
2017-07-08T00:15:06.531Z,1010.27
2017-07-08T00:15:16.182Z,1010.33
2017-07-08T00:15:26.517Z,1010.35
2017-07-08T00:15:36.180Z,1010.33
2017-07-08T00:15:45.838Z,1010.31
2017-07-08T00:15:56.171Z,1010.32
2017-07-08T00:16:06.166Z,1010.28
2017-07-08T00:16:16.496Z,1010.32
2017-07-08T00:16:26.156Z,1010.33
2017-07-08T00:16:35.815Z,1010.32
2017-07-08T00:16:46.148Z,1010.26
2017-07-08T00:16:56.143Z,1010.31
2017-07-08T00:17:05.805Z,1010.3
2017-07-08T00:17:16.132Z,1010.29
2017-07-08T00:17:26.459Z,1010.33
2017-07-08T00:17:36.127Z,1010.32
2017-07-08T00:17:46.121Z,1010.29
2017-07-08T00:17:55.783Z,1010.25
2017-07-08T00:18:05.776Z,1010.3
2017-07-08T00:18:16.103Z,1010.29
2017-07-08T00:18:26.437Z,1010.27
2017-07-08T00:18:36.788Z,1010.31
2017-07-08T00:18:45.756Z,1010.31
2017-07-08T00:18:56.083Z,1010.31
2017-07-08T00:19:05.745Z,1010.29
2017-07-08T00:19:15.742Z,1010.27
2017-07-08T00:19:26.405Z,1010.27
2017-07-08T00:19:35.728Z,1010.24
2017-07-08T00:19:46.399Z,1010.29
2017-07-08T00:19:56.053Z,1010.25
2017-07-08T00:20:05.717Z,1010.26
2017-07-08T00:20:15.715Z,1010.23
2017-07-08T00:20:26.374Z,1010.28
2017-07-08T00:20:36.370Z,1010.29
2017-07-08T00:20:46.030Z,1010.27
2017-07-08T00:20:56.030Z,1010.29
2017-07-08T00:21:05.685Z,1010.3
2017-07-08T00:21:16.019Z,1010.21
2017-07-08T00:21:25.680Z,1010.24
2017-07-08T00:21:35.676Z,1010.27
2017-07-08T00:21:46.376Z,1010.26
2017-07-08T00:21:56.003Z,1010.23
2017-07-08T00:22:05.659Z,1010.24
2017-07-08T00:22:15.654Z,1010.21
2017-07-08T00:22:25.989Z,1010.23
2017-07-08T00:22:35.647Z,1010.23
2017-07-08T00:22:45.642Z,1010.2
2017-07-08T00:22:55.635Z,1010.23
2017-07-08T00:23:05.632Z,1010.21
2017-07-08T00:23:16.298Z,1010.27
2017-07-08T00:23:25.618Z,1010.22
2017-07-08T00:23:35.615Z,1010.23
2017-07-08T00:23:45.619Z,1010.22
2017-07-08T00:23:55.604Z,1010.21
2017-07-08T00:24:05.605Z,1010.19
2017-07-08T00:24:15.933Z,1010.23
2017-07-08T00:24:25.599Z,1010.17
2017-07-08T00:24:35.594Z,1010.2
2017-07-08T00:24:45.586Z,1010.19
2017-07-08T00:24:56.251Z,1010.21
2017-07-08T00:25:05.911Z,1010.24
2017-07-08T00:25:16.235Z,1010.16
2017-07-08T00:25:25.900Z,1010.2
2017-07-08T00:25:35.895Z,1010.21
2017-07-08T00:25:46.226Z,1010.23
2017-07-08T00:25:55.886Z,1010.23
2017-07-08T00:26:05.547Z,1010.22
2017-07-08T00:26:16.226Z,1010.23
2017-07-08T00:26:25.869Z,1010.19
2017-07-08T00:26:36.199Z,1010.22
2017-07-08T00:26:46.201Z,1010.19
2017-07-08T00:26:55.519Z,1010.17
2017-07-08T00:27:05.522Z,1010.18
2017-07-08T00:27:16.180Z,1010.19
2017-07-08T00:27:25.846Z,1010.18
2017-07-08T00:27:35.840Z,1010.23
2017-07-08T00:27:45.831Z,1010.19
2017-07-08T00:27:55.833Z,1010.2
2017-07-08T00:28:05.825Z,1010.22
2017-07-08T00:28:15.484Z,1010.26
2017-07-08T00:28:25.481Z,1010.18
2017-07-08T00:28:35.474Z,1010.16
2017-07-08T00:28:45.806Z,1010.23
2017-07-08T00:28:56.137Z,1010.18
2017-07-08T00:29:05.462Z,1010.12
2017-07-08T00:29:15.796Z,1010.16
2017-07-08T00:29:25.784Z,1010.19
2017-07-08T00:29:35.448Z,1010.16
2017-07-08T00:29:45.779Z,1010.2
2017-07-08T00:29:55.773Z,1010.17
2017-07-08T00:30:05.432Z,1010.12
2017-07-08T00:30:15.429Z,1010.11
2017-07-08T00:30:25.761Z,1010.14
2017-07-08T00:30:35.760Z,1010.14
2017-07-08T00:30:46.084Z,1010.13
2017-07-08T00:30:55.404Z,1010.14
2017-07-08T00:31:05.737Z,1010.12
2017-07-08T00:31:16.070Z,1010.16
2017-07-08T00:31:25.729Z,1010.11
2017-07-08T00:31:35.725Z,1010.15
2017-07-08T00:31:46.062Z,1010.13
2017-07-08T00:31:55.383Z,1010.13
2017-07-08T00:32:05.374Z,1010.16
2017-07-08T00:32:15.372Z,1010.1
2017-07-08T00:32:25.369Z,1010.1
2017-07-08T00:32:36.037Z,1010.08
2017-07-08T00:32:45.356Z,1010.16
2017-07-08T00:32:55.688Z,1010.16
2017-07-08T00:33:05.684Z,1010.14
2017-07-08T00:33:15.345Z,1010.14
2017-07-08T00:33:25.340Z,1010.12
2017-07-08T00:33:36.006Z,1010.14
2017-07-08T00:33:46.001Z,1010.18
2017-07-08T00:33:55.659Z,1010.15
2017-07-08T00:34:05.649Z,1010.13
2017-07-08T00:34:15.650Z,1010.16
2017-07-08T00:34:25.307Z,1010.11
2017-07-08T00:34:35.310Z,1010.15
2017-07-08T00:34:45.305Z,1010.18
2017-07-08T00:34:55.633Z,1010.13
2017-07-08T00:35:05.287Z,1010.14
2017-07-08T00:35:15.621Z,1010.14
2017-07-08T00:35:25.621Z,1010.18
2017-07-08T00:35:35.608Z,1010.15
2017-07-08T00:35:45.607Z,1010.18
2017-07-08T00:35:55.269Z,1010.12
2017-07-08T00:36:05.599Z,1010.18
2017-07-08T00:36:15.654Z,1010.14
2017-07-08T00:36:25.919Z,1010.13
2017-07-08T00:36:35.249Z,1010.17
2017-07-08T00:36:45.914Z,1010.1
2017-07-08T00:36:55.239Z,1010.13
2017-07-08T00:37:05.569Z,1010.14
2017-07-08T00:37:15.233Z,1010.15
2017-07-08T00:37:25.225Z,1010.15
2017-07-08T00:37:35.220Z,1010.12
2017-07-08T00:37:45.213Z,1010.12
2017-07-08T00:37:55.541Z,1010.17
2017-07-08T00:38:05.538Z,1010.15
2017-07-08T00:38:15.539Z,1010.17
2017-07-08T00:38:25.533Z,1010.16
2017-07-08T00:38:35.528Z,1010.15
2017-07-08T00:38:45.521Z,1010.15
2017-07-08T00:38:55.856Z,1010.18
2017-07-08T00:39:05.513Z,1010.17
2017-07-08T00:39:15.512Z,1010.16
2017-07-08T00:39:25.170Z,1010.15
2017-07-08T00:39:35.835Z,1010.2
2017-07-08T00:39:45.495Z,1010.16
2017-07-08T00:39:55.488Z,1010.17
2017-07-08T00:40:05.484Z,1010.17
2017-07-08T00:40:15.484Z,1010.19
2017-07-08T00:40:25.141Z,1010.18
2017-07-08T00:40:35.470Z,1010.15
2017-07-08T00:40:45.797Z,1010.17
2017-07-08T00:40:55.462Z,1010.16
2017-07-08T00:41:05.121Z,1010.15
2017-07-08T00:41:15.450Z,1010.18
2017-07-08T00:41:25.448Z,1010.13
2017-07-08T00:41:35.774Z,1010.18
2017-07-08T00:41:45.103Z,1010.15
2017-07-08T00:41:55.102Z,1010.16
2017-07-08T00:42:05.765Z,1010.17
2017-07-08T00:42:15.417Z,1010.15
2017-07-08T00:42:25.082Z,1010.18
2017-07-08T00:42:35.411Z,1010.19
2017-07-08T00:42:45.405Z,1010.14
2017-07-08T00:42:55.407Z,1010.15
2017-07-08T00:43:05.062Z,1010.14
2017-07-08T00:43:15.389Z,1010.15
2017-07-08T00:43:25.383Z,1010.08
2017-07-08T00:43:35.053Z,1010.11
2017-07-08T00:43:45.381Z,1010.12
2017-07-08T00:43:55.040Z,1010.15
2017-07-08T00:44:05.036Z,1010.13
2017-07-08T00:44:15.032Z,1010.12
2017-07-08T00:44:25.030Z,1010.12
2017-07-08T00:44:35.021Z,1010.11
2017-07-08T00:44:45.692Z,1010.08
2017-07-08T00:44:55.680Z,1010.11
2017-07-08T00:45:05.676Z,1010.1
2017-07-08T00:45:15.670Z,1010.14
2017-07-08T00:45:25.333Z,1010.09
2017-07-08T00:45:35.330Z,1010.13
2017-07-08T00:45:45.656Z,1010.11
2017-07-08T00:45:55.312Z,1010.1
2017-07-08T00:46:04.985Z,1010.13
2017-07-08T00:46:15.305Z,1010.08
2017-07-08T00:46:25.302Z,1010.11
2017-07-08T00:46:34.964Z,1010.1
2017-07-08T00:46:44.959Z,1010.13
2017-07-08T00:46:55.295Z,1010.1
2017-07-08T00:47:05.281Z,1010.06
2017-07-08T00:47:14.942Z,1010.09
2017-07-08T00:47:25.621Z,1010.1
2017-07-08T00:47:35.607Z,1010.06
2017-07-08T00:47:45.263Z,1010.1
2017-07-08T00:47:55.264Z,1010.13
2017-07-08T00:48:05.254Z,1010.16
2017-07-08T00:48:14.916Z,1010.15
2017-07-08T00:48:24.910Z,1010.13
2017-07-08T00:48:34.912Z,1010.1
2017-07-08T00:48:44.903Z,1010.11
2017-07-08T00:48:55.568Z,1010.11
2017-07-08T00:49:05.564Z,1010.14
2017-07-08T00:49:14.893Z,1010.15
2017-07-08T00:49:24.884Z,1010.12
2017-07-08T00:49:35.549Z,1010.16
2017-07-08T00:49:44.873Z,1010.14
2017-07-08T00:49:55.205Z,1010.14
2017-07-08T00:50:04.864Z,1010.13
2017-07-08T00:50:14.865Z,1010.11
2017-07-08T00:50:25.525Z,1010.12
2017-07-08T00:50:34.852Z,1010.14
2017-07-08T00:50:44.845Z,1010.15
2017-07-08T00:50:55.506Z,1010.09
2017-07-08T00:51:05.508Z,1010.16
2017-07-08T00:51:15.505Z,1010.16
2017-07-08T00:51:25.495Z,1010.16
2017-07-08T00:51:35.157Z,1010.16
2017-07-08T00:51:44.816Z,1010.12
2017-07-08T00:51:55.142Z,1010.08
2017-07-08T00:52:05.140Z,1010.13
2017-07-08T00:52:15.140Z,1010.06
2017-07-08T00:52:24.797Z,1010.09
2017-07-08T00:52:35.463Z,1010.12
2017-07-08T00:52:45.123Z,1010.09
2017-07-08T00:52:54.778Z,1010.11
2017-07-08T00:53:05.112Z,1010.13
2017-07-08T00:53:14.776Z,1010.12
2017-07-08T00:53:25.438Z,1010.1
2017-07-08T00:53:34.762Z,1010.11
2017-07-08T00:53:44.760Z,1010.12
2017-07-08T00:53:54.753Z,1010.08
2017-07-08T00:54:04.753Z,1010.08
2017-07-08T00:54:15.416Z,1010.12
2017-07-08T00:54:25.079Z,1010.09
2017-07-08T00:54:34.740Z,1010.13
2017-07-08T00:54:45.066Z,1010.17
2017-07-08T00:54:55.394Z,1010.17
2017-07-08T00:55:04.721Z,1010.16
2017-07-08T00:55:15.051Z,1010.15
2017-07-08T00:55:25.383Z,1010.13
2017-07-08T00:55:35.375Z,1010.16
2017-07-08T00:55:44.708Z,1010.12
2017-07-08T00:55:55.033Z,1010.14
2017-07-08T00:56:05.029Z,1010.11
2017-07-08T00:56:15.358Z,1010.17
2017-07-08T00:56:25.364Z,1010.14
2017-07-08T00:56:35.015Z,1010.16
2017-07-08T00:56:44.676Z,1010.1
2017-07-08T00:56:55.338Z,1010.15
2017-07-08T00:57:04.661Z,1010.15
2017-07-08T00:57:15.332Z,1010.18
2017-07-08T00:57:24.997Z,1010.1
2017-07-08T00:57:34.648Z,1010.12
2017-07-08T00:57:44.648Z,1010.14
2017-07-08T00:57:55.309Z,1010.14
2017-07-08T00:58:04.638Z,1010.14
2017-07-08T00:58:14.630Z,1010.13
2017-07-08T00:58:24.967Z,1010.11
2017-07-08T00:58:34.962Z,1010.15
2017-07-08T00:58:44.956Z,1010.13
2017-07-08T00:58:54.613Z,1010.14
2017-07-08T00:59:05.279Z,1010.17
2017-07-08T00:59:15.273Z,1010.13
2017-07-08T00:59:24.601Z,1010.18
2017-07-08T00:59:34.593Z,1010.14
2017-07-08T00:59:45.263Z,1010.17
2017-07-08T00:59:55.255Z,1010.15
2017-07-08T01:00:04.912Z,1010.13
2017-07-08T01:00:15.241Z,1010.12
2017-07-08T01:00:25.241Z,1010.08
2017-07-08T01:00:34.898Z,1010.14
2017-07-08T01:00:44.901Z,1010.13
2017-07-08T01:00:54.890Z,1010.15
2017-07-08T01:01:04.555Z,1010.14
2017-07-08T01:01:14.546Z,1010.08
2017-07-08T01:01:24.540Z,1010.13
2017-07-08T01:01:34.875Z,1010.13
2017-07-08T01:01:45.201Z,1010.08
2017-07-08T01:01:55.203Z,1010.09
2017-07-08T01:02:04.859Z,1010.08
2017-07-08T01:02:14.520Z,1010.12
2017-07-08T01:02:24.511Z,1010.11
2017-07-08T01:02:34.841Z,1010.09
2017-07-08T01:02:44.502Z,1010.13
2017-07-08T01:02:54.831Z,1010.14
2017-07-08T01:03:05.163Z,1010.16
2017-07-08T01:03:14.825Z,1010.11
2017-07-08T01:03:24.823Z,1010.11
2017-07-08T01:03:34.810Z,1010.13
2017-07-08T01:03:44.811Z,1010.14
2017-07-08T01:03:54.468Z,1010.15
2017-07-08T01:04:04.799Z,1010.14
2017-07-08T01:04:14.795Z,1010.13
2017-07-08T01:04:25.127Z,1010.14
2017-07-08T01:04:34.787Z,1010.17
2017-07-08T01:04:44.779Z,1010.14
2017-07-08T01:04:55.107Z,1010.1
2017-07-08T01:05:05.109Z,1010.14
2017-07-08T01:05:14.432Z,1010.11
2017-07-08T01:05:24.765Z,1010.11
2017-07-08T01:05:34.757Z,1010.19
2017-07-08T01:05:44.418Z,1010.18
2017-07-08T01:05:55.082Z,1010.19
2017-07-08T01:06:04.748Z,1010.12
2017-07-08T01:06:14.407Z,1010.15
2017-07-08T01:06:24.730Z,1010.19
2017-07-08T01:06:35.068Z,1010.14
2017-07-08T01:06:44.726Z,1010.12
2017-07-08T01:06:54.387Z,1010.14
2017-07-08T01:07:04.380Z,1010.1
2017-07-08T01:07:14.380Z,1010.18
2017-07-08T01:07:25.037Z,1010.16
2017-07-08T01:07:35.040Z,1010.16
2017-07-08T01:07:44.697Z,1010.18
2017-07-08T01:07:55.030Z,1010.15
2017-07-08T01:08:04.689Z,1010.13
2017-07-08T01:08:14.679Z,1010.15
2017-07-08T01:08:24.341Z,1010.14
2017-07-08T01:08:35.008Z,1010.14
2017-07-08T01:08:44.670Z,1010.14
2017-07-08T01:08:54.325Z,1010.13
2017-07-08T01:09:04.659Z,1010.2
2017-07-08T01:09:14.317Z,1010.14
2017-07-08T01:09:24.982Z,1010.17
2017-07-08T01:09:34.976Z,1010.15
2017-07-08T01:09:44.641Z,1010.14
2017-07-08T01:09:54.630Z,1010.12
2017-07-08T01:10:04.629Z,1010.14
2017-07-08T01:10:14.286Z,1010.18
2017-07-08T01:10:24.958Z,1010.14
2017-07-08T01:10:34.951Z,1010.16
2017-07-08T01:10:44.945Z,1010.16
2017-07-08T01:10:54.272Z,1010.19
2017-07-08T01:11:04.601Z,1010.18
2017-07-08T01:11:14.259Z,1010.17
2017-07-08T01:11:24.590Z,1010.15
2017-07-08T01:11:34.586Z,1010.14
2017-07-08T01:11:44.584Z,1010.17
2017-07-08T01:11:54.576Z,1010.17
2017-07-08T01:12:04.238Z,1010.18
2017-07-08T01:12:14.567Z,1010.19
2017-07-08T01:12:24.230Z,1010.19
2017-07-08T01:12:34.558Z,1010.16
2017-07-08T01:12:44.552Z,1010.2
2017-07-08T01:12:54.328Z,1010.17
2017-07-08T01:13:04.207Z,1010.17
2017-07-08T01:13:14.205Z,1010.22
2017-07-08T01:13:24.531Z,1010.22
2017-07-08T01:13:34.195Z,1010.15
2017-07-08T01:13:44.528Z,1010.16
2017-07-08T01:13:54.526Z,1010.19
2017-07-08T01:14:04.178Z,1010.16
2017-07-08T01:14:14.865Z,1010.18
2017-07-08T01:14:24.505Z,1010.19
2017-07-08T01:14:34.503Z,1010.17
2017-07-08T01:14:44.496Z,1010.24
2017-07-08T01:14:54.155Z,1010.17
2017-07-08T01:15:04.150Z,1010.19
2017-07-08T01:15:14.147Z,1010.21
2017-07-08T01:15:24.481Z,1010.16
2017-07-08T01:15:34.474Z,1010.18
2017-07-08T01:15:44.802Z,1010.22
2017-07-08T01:15:54.466Z,1010.21
2017-07-08T01:16:04.121Z,1010.19
2017-07-08T01:16:14.449Z,1010.2
2017-07-08T01:16:24.111Z,1010.12
2017-07-08T01:16:34.445Z,1010.16
2017-07-08T01:16:44.441Z,1010.19
2017-07-08T01:16:54.767Z,1010.19
2017-07-08T01:17:04.767Z,1010.12
2017-07-08T01:17:14.428Z,1010.17
2017-07-08T01:17:24.416Z,1010.18
2017-07-08T01:17:34.416Z,1010.17
2017-07-08T01:17:44.408Z,1010.19
2017-07-08T01:17:54.404Z,1010.12
2017-07-08T01:18:04.810Z,1010.19
2017-07-08T01:18:14.400Z,1010.16
2017-07-08T01:18:24.398Z,1010.16
2017-07-08T01:18:34.722Z,1010.2
2017-07-08T01:18:44.385Z,1010.15
2017-07-08T01:18:54.733Z,1010.15
2017-07-08T01:19:04.373Z,1010.18
2017-07-08T01:19:14.370Z,1010.14
2017-07-08T01:19:24.695Z,1010.19
2017-07-08T01:19:34.022Z,1010.13
2017-07-08T01:19:44.355Z,1010.13
2017-07-08T01:19:54.345Z,1010.15
2017-07-08T01:20:04.675Z,1010.19
2017-07-08T01:20:14.673Z,1010.15
2017-07-08T01:20:24.337Z,1010.15
2017-07-08T01:20:33.996Z,1010.15
2017-07-08T01:20:44.327Z,1010.13
2017-07-08T01:20:55.006Z,1010.14
2017-07-08T01:21:03.982Z,1010.13
2017-07-08T01:21:13.976Z,1010.07
2017-07-08T01:21:24.306Z,1010.07
2017-07-08T01:21:34.652Z,1010.07
2017-07-08T01:21:43.963Z,1010.1
2017-07-08T01:21:54.294Z,1010.1
2017-07-08T01:22:03.956Z,1010.07
2017-07-08T01:22:14.282Z,1010.09
2017-07-08T01:22:23.947Z,1010.1
2017-07-08T01:22:33.936Z,1010.07
2017-07-08T01:22:44.265Z,1010.05
2017-07-08T01:22:54.593Z,1010.05
2017-07-08T01:23:04.592Z,1010.04
2017-07-08T01:23:13.915Z,1010.03
2017-07-08T01:23:23.914Z,1010.04
2017-07-08T01:23:33.906Z,1010.04
2017-07-08T01:23:44.236Z,1010
2017-07-08T01:23:53.896Z,1010.02
2017-07-08T01:24:04.228Z,1010.01
2017-07-08T01:24:14.223Z,1010.05
2017-07-08T01:24:24.216Z,1009.99
2017-07-08T01:24:33.879Z,1010.04
2017-07-08T01:24:44.209Z,1010.03
2017-07-08T01:24:54.207Z,1010.01
2017-07-08T01:25:03.866Z,1009.99
2017-07-08T01:25:13.858Z,1010.06
2017-07-08T01:25:24.524Z,1010.04
2017-07-08T01:25:34.183Z,1010.01
2017-07-08T01:25:44.185Z,1010.03
2017-07-08T01:25:53.840Z,1010.04
2017-07-08T01:26:04.172Z,1010.04
2017-07-08T01:26:13.830Z,1010.02
2017-07-08T01:26:23.830Z,1010.05
2017-07-08T01:26:33.819Z,1010.04
2017-07-08T01:26:44.151Z,1010.03
2017-07-08T01:26:54.148Z,1010.01
2017-07-08T01:27:04.143Z,1010.07
2017-07-08T01:27:13.803Z,1010.04
2017-07-08T01:27:24.468Z,1010.09
2017-07-08T01:27:33.795Z,1010.05
2017-07-08T01:27:44.463Z,1010.06
2017-07-08T01:27:54.120Z,1010.06
2017-07-08T01:28:04.168Z,1010.05
2017-07-08T01:28:14.108Z,1010.02
2017-07-08T01:28:24.106Z,1010.04
2017-07-08T01:28:33.764Z,1010.04
2017-07-08T01:28:43.758Z,1010.03
2017-07-08T01:28:54.427Z,1010.02
2017-07-08T01:29:03.753Z,1010
2017-07-08T01:29:13.743Z,1010.04
2017-07-08T01:29:23.739Z,1010.04
2017-07-08T01:29:34.405Z,1009.99
2017-07-08T01:29:44.402Z,1010.08
2017-07-08T01:29:54.061Z,1010.08
2017-07-08T01:30:04.055Z,1010.04
2017-07-08T01:30:14.055Z,1010.03
2017-07-08T01:30:24.048Z,1010.06
2017-07-08T01:30:33.708Z,1010.09
2017-07-08T01:30:44.036Z,1010.05
2017-07-08T01:30:54.037Z,1010.03
2017-07-08T01:31:04.030Z,1010.05
2017-07-08T01:31:13.689Z,1010.03
2017-07-08T01:31:23.686Z,1010.02
2017-07-08T01:31:34.350Z,1010
2017-07-08T01:31:44.013Z,1010.02
2017-07-08T01:31:53.672Z,1010.02
2017-07-08T01:32:03.996Z,1010.05
2017-07-08T01:32:13.662Z,1010.04
2017-07-08T01:32:23.656Z,1010.05
2017-07-08T01:32:33.650Z,1010.05
2017-07-08T01:32:43.645Z,1010.03
2017-07-08T01:32:54.316Z,1010.06
2017-07-08T01:33:04.301Z,1010.03
2017-07-08T01:33:14.303Z,1010.04
2017-07-08T01:33:23.958Z,1010.05
2017-07-08T01:33:33.953Z,1010.06
2017-07-08T01:33:43.955Z,1010.01
2017-07-08T01:33:53.958Z,1010.11
2017-07-08T01:34:03.604Z,1010.03
2017-07-08T01:34:13.939Z,1010.03
2017-07-08T01:34:23.599Z,1010.05
2017-07-08T01:34:33.596Z,1010.04
2017-07-08T01:34:43.592Z,1010.02
2017-07-08T01:34:53.586Z,1010.08
2017-07-08T01:35:04.249Z,1010.05
2017-07-08T01:35:13.910Z,1010.01
2017-07-08T01:35:23.900Z,1010.06
2017-07-08T01:35:33.561Z,1010.01
2017-07-08T01:35:43.556Z,1010.04
2017-07-08T01:35:54.227Z,1010.03
2017-07-08T01:36:03.551Z,1009.99
2017-07-08T01:36:13.544Z,1010.01
2017-07-08T01:36:23.876Z,1010.06
2017-07-08T01:36:33.869Z,1010.06
2017-07-08T01:36:43.870Z,1010.01
2017-07-08T01:36:53.525Z,1010.02
2017-07-08T01:37:03.855Z,1010.01
2017-07-08T01:37:13.521Z,1010.02
2017-07-08T01:37:23.846Z,1010.05
2017-07-08T01:37:33.505Z,1010.04
2017-07-08T01:37:43.502Z,1010.01
2017-07-08T01:37:53.501Z,1010.06
2017-07-08T01:38:03.825Z,1010.05
2017-07-08T01:38:13.822Z,1010.04
2017-07-08T01:38:23.815Z,1010.07
2017-07-08T01:38:33.815Z,1010.02
2017-07-08T01:38:44.142Z,1010.09
2017-07-08T01:38:53.801Z,1010.04
2017-07-08T01:39:03.464Z,1010.02
2017-07-08T01:39:13.455Z,1010.02
2017-07-08T01:39:23.790Z,1010.04
2017-07-08T01:39:33.782Z,1010.03
2017-07-08T01:39:43.779Z,1010.04
2017-07-08T01:39:53.438Z,1010.05
2017-07-08T01:40:03.770Z,1010.02
2017-07-08T01:40:13.760Z,1010.05
2017-07-08T01:40:23.766Z,1010
2017-07-08T01:40:33.756Z,1010.08
2017-07-08T01:40:43.750Z,1010.04
2017-07-08T01:40:53.413Z,1010.08
2017-07-08T01:41:03.743Z,1010.09
2017-07-08T01:41:13.737Z,1010.05
2017-07-08T01:41:23.394Z,1010.04
2017-07-08T01:41:33.393Z,1010.05
2017-07-08T01:41:44.057Z,1010.07
2017-07-08T01:41:54.054Z,1010.03
2017-07-08T01:42:03.708Z,1010.08
2017-07-08T01:42:13.708Z,1010.07
2017-07-08T01:42:23.707Z,1010.05
2017-07-08T01:42:33.363Z,1010.07
2017-07-08T01:42:43.356Z,1010.07
2017-07-08T01:42:54.023Z,1010.07
2017-07-08T01:43:03.689Z,1010.09
2017-07-08T01:43:13.682Z,1010.12
2017-07-08T01:43:23.674Z,1010.07
2017-07-08T01:43:34.003Z,1010.06
2017-07-08T01:43:43.663Z,1010.11
2017-07-08T01:43:53.659Z,1010.1
2017-07-08T01:44:03.318Z,1010.09
2017-07-08T01:44:13.653Z,1010.06
2017-07-08T01:44:23.645Z,1010.1
2017-07-08T01:44:33.304Z,1010.11
2017-07-08T01:44:43.970Z,1010.04
2017-07-08T01:44:53.634Z,1010.06
2017-07-08T01:45:03.292Z,1010.06
2017-07-08T01:45:13.961Z,1010.05
2017-07-08T01:45:23.618Z,1010.03
2017-07-08T01:45:33.949Z,1010.08
2017-07-08T01:45:43.611Z,1010.05
2017-07-08T01:45:53.606Z,1010.07
2017-07-08T01:46:03.936Z,1010.03
2017-07-08T01:46:13.259Z,1010.06
2017-07-08T01:46:23.256Z,1010.1
2017-07-08T01:46:33.584Z,1010.05
2017-07-08T01:46:43.580Z,1010.09
2017-07-08T01:46:53.578Z,1010.03
2017-07-08T01:47:03.900Z,1010.03
2017-07-08T01:47:13.563Z,1010.01
2017-07-08T01:47:23.563Z,1010.07
2017-07-08T01:47:33.219Z,1010.07
2017-07-08T01:47:43.551Z,1010.04
2017-07-08T01:47:53.547Z,1010.03
2017-07-08T01:48:03.214Z,1010.01
2017-07-08T01:48:13.872Z,1010.07
2017-07-08T01:48:23.196Z,1010.07
2017-07-08T01:48:33.190Z,1010
2017-07-08T01:48:43.856Z,1010.02
2017-07-08T01:48:53.855Z,1010.05
2017-07-08T01:49:03.175Z,1010.06
2017-07-08T01:49:13.559Z,1010.07
2017-07-08T01:49:23.853Z,1010.06
2017-07-08T01:49:33.831Z,1010.07
2017-07-08T01:49:43.493Z,1010.07
2017-07-08T01:49:53.153Z,1010.08
2017-07-08T01:50:03.149Z,1010.04
2017-07-08T01:50:13.142Z,1010.04
2017-07-08T01:50:23.470Z,1010.04
2017-07-08T01:50:33.468Z,1010.08
2017-07-08T01:50:43.795Z,1010.05
2017-07-08T01:50:53.461Z,1010.07
2017-07-08T01:51:03.453Z,1010.07
2017-07-08T01:51:13.114Z,1010.08
2017-07-08T01:51:23.114Z,1010.07
2017-07-08T01:51:33.439Z,1010.08
2017-07-08T01:51:43.102Z,1010.07
2017-07-08T01:51:53.096Z,1010.08
2017-07-08T01:52:03.423Z,1010.05
2017-07-08T01:52:13.417Z,1010.08
2017-07-08T01:52:23.416Z,1010.09
2017-07-08T01:52:33.414Z,1010.08
2017-07-08T01:52:43.069Z,1010.1
2017-07-08T01:52:53.397Z,1010.05
2017-07-08T01:53:03.392Z,1010.07
2017-07-08T01:53:13.392Z,1010.11
2017-07-08T01:53:23.720Z,1010.11
2017-07-08T01:53:33.386Z,1010.06
2017-07-08T01:53:43.382Z,1010.03
2017-07-08T01:53:53.370Z,1010.04
2017-07-08T01:54:03.704Z,1010.08
2017-07-08T01:54:13.029Z,1010.08
2017-07-08T01:54:23.362Z,1010.05
2017-07-08T01:54:33.355Z,1010.11
2017-07-08T01:54:43.344Z,1010.05
2017-07-08T01:54:53.346Z,1010.02
2017-07-08T01:55:03.334Z,1010.1
2017-07-08T01:55:12.999Z,1010.05
2017-07-08T01:55:23.332Z,1010.05
2017-07-08T01:55:33.324Z,1010.05
2017-07-08T01:55:43.320Z,1010.02
2017-07-08T01:55:53.319Z,1010.01
2017-07-08T01:56:03.644Z,1010.06
2017-07-08T01:56:12.969Z,1010.02
2017-07-08T01:56:22.974Z,1010.04
2017-07-08T01:56:33.297Z,1010.06
2017-07-08T01:56:43.292Z,1010.06
2017-07-08T01:56:53.289Z,1010.1
2017-07-08T01:57:02.942Z,1010.11
2017-07-08T01:57:13.279Z,1010.11
2017-07-08T01:57:22.936Z,1010.03
2017-07-08T01:57:33.980Z,1010.08
2017-07-08T01:57:43.266Z,1010.06
2017-07-08T01:57:53.259Z,1010.12
2017-07-08T01:58:03.256Z,1010.07
2017-07-08T01:58:12.913Z,1010.13
2017-07-08T01:58:22.907Z,1010.1
2017-07-08T01:58:32.900Z,1010.12
2017-07-08T01:58:42.901Z,1010.06
2017-07-08T01:58:53.229Z,1010.08
2017-07-08T01:59:03.226Z,1010.09
2017-07-08T01:59:13.222Z,1010.09
2017-07-08T01:59:23.547Z,1010.08
2017-07-08T01:59:33.216Z,1010.1
2017-07-08T01:59:42.867Z,1010.09
2017-07-08T01:59:53.211Z,1010.03
2017-07-08T02:00:02.863Z,1010.09
2017-07-08T02:00:13.190Z,1010.09
2017-07-08T02:00:23.189Z,1010.12
2017-07-08T02:00:32.848Z,1010.09
2017-07-08T02:00:43.512Z,1010.1
2017-07-08T02:00:52.837Z,1010.08
2017-07-08T02:01:02.833Z,1010.11
2017-07-08T02:01:13.491Z,1010.1